This is the latest recevied weather packets stored in our database for station/object SV9TNF-1. If no packets are shown the sender has not sent any weather packets the latest 10 day(s).
| Time | Temp. | Humidity | Pressure | Rain* | Wind** | Luminosity | Snow |
|---|---|---|---|---|---|---|---|
| 1778172663 | 19.44° C | 69% | 1006.4 hPa | 0 mm | 2.68 m/s, 319° | - | - |
| 1778172363 | 19.44° C | 68% | 1006.4 hPa | 0 mm | 3.13 m/s, 91° | - | - |
| 1778172063 | 19.44° C | 67% | 1006.4 hPa | 0 mm | 3.58 m/s, 333° | - | - |
| 1778171762 | 20° C | 66% | 1006.1 hPa | 0 mm | 4.47 m/s, 356° | - | - |
| 1778171462 | 20.56° C | 62% | 1006.1 hPa | 0 mm | 1.79 m/s, 112° | - | - |
| 1778171162 | 21.11° C | 63% | 1006.1 hPa | 0 mm | 0 m/s | - | - |
| 1778170863 | 20.56° C | 63% | 1006.4 hPa | 0 mm | 0 m/s | - | - |
| 1778170562 | 20.56° C | 63% | 1006.4 hPa | 0 mm | 3.13 m/s, 90° | - | - |
| 1778170262 | 20.56° C | 60% | 1006.4 hPa | 0 mm | 4.02 m/s, 346° | - | - |
| 1778169962 | 20.56° C | 61% | 1006.4 hPa | 0 mm | 4.02 m/s, 57° | - | - |
| 1778169662 | 21.11° C | 60% | 1006.4 hPa | 0 mm | 5.81 m/s, 341° | - | - |
| 1778169362 | 22.22° C | 57% | 1006.4 hPa | 0 mm | 2.24 m/s, 120° | - | - |
| 1778169062 | 22.78° C | 57% | 1006.4 hPa | 0 mm | 0 m/s | - | - |
| 1778168762 | 22.78° C | 58% | 1006.4 hPa | 0 mm | 0.45 m/s, 131° | - | - |
| 1778168461 | 22.22° C | 60% | 1006.4 hPa | 0 mm | 0.45 m/s, 135° | - | - |
| 1778168162 | 21.67° C | 62% | 1006.4 hPa | 0 mm | 1.34 m/s, 127° | - | - |
| 1778167861 | 21.67° C | 64% | 1006.4 hPa | 0 mm | 0.89 m/s, 134° | - | - |
| 1778167561 | 21.11° C | 65% | 1006.4 hPa | 0 mm | 0.45 m/s, 141° | - | - |
| 1778167261 | 20.56° C | 65% | 1006.4 hPa | 0 mm | 6.26 m/s, 111° | - | - |
| 1778166961 | 20.56° C | 66% | 1006.4 hPa | 0 mm | 7.15 m/s, 328° | - | - |
| 1778166661 | 20.56° C | 64% | 1006.1 hPa | 0 mm | 4.92 m/s, 347° | - | - |
| 1778166361 | 20.56° C | 63% | 1006.1 hPa | 0 mm | 7.15 m/s, 66° | - | - |
| 1778166061 | 20.56° C | 61% | 1006.1 hPa | 0 mm | 5.81 m/s, 331° | - | - |
| 1778165760 | 21.11° C | 62% | 1006.1 hPa | 0 mm | 3.58 m/s, 330° | - | - |
| 1778165461 | 21.11° C | 61% | 1006.1 hPa | 0 mm | 7.15 m/s, 338° | - | - |
* Rain latest hour (hover to see other rain measurements)
** Current wind speed in m/s (hover to see current wind gust speed)